createdAt,value
2022-12-27T00:00:36.900Z,11.53
2022-12-27T00:03:04.702Z,6.00
2022-12-27T00:05:31.994Z,11.60
2022-12-27T00:07:59.291Z,10.60
2022-12-27T00:10:26.627Z,8.70
2022-12-27T00:12:53.871Z,4.93
2022-12-27T00:15:22.171Z,5.63
2022-12-27T00:17:50.134Z,7.57
2022-12-27T00:20:17.538Z,6.70
2022-12-27T00:22:44.930Z,8.23
2022-12-27T00:25:12.221Z,6.47
2022-12-27T00:27:39.586Z,3.17
2022-12-27T00:30:08.451Z,8.77
2022-12-27T00:32:36.358Z,8.40
2022-12-27T00:35:04.012Z,12.77
2022-12-27T00:37:31.237Z,6.33
2022-12-27T00:39:58.826Z,14.57
2022-12-27T00:42:26.055Z,6.23
2022-12-27T00:44:53.332Z,13.00
2022-12-27T00:47:20.580Z,12.33
2022-12-27T00:49:48.544Z,13.90
2022-12-27T00:52:15.806Z,8.20
2022-12-27T00:54:43.089Z,14.43
2022-12-27T00:57:10.414Z,10.87
2022-12-27T00:59:37.804Z,16.33
2022-12-27T01:02:05.095Z,16.63
2022-12-27T01:04:32.444Z,7.13
2022-12-27T01:07:00.355Z,11.63
2022-12-27T01:09:27.808Z,18.13
2022-12-27T01:11:55.188Z,12.43
2022-12-27T01:14:22.521Z,13.43
2022-12-27T01:16:49.866Z,10.23
2022-12-27T01:19:17.641Z,12.17
2022-12-27T01:21:44.910Z,10.63
2022-12-27T01:24:13.379Z,7.13
2022-12-27T01:26:40.814Z,8.30
2022-12-27T01:29:10.128Z,15.60
2022-12-27T01:31:37.821Z,14.57
2022-12-27T01:34:05.188Z,9.73
2022-12-27T01:36:32.479Z,3.23
2022-12-27T01:39:00.580Z,14.50
2022-12-27T01:41:53.903Z,7.50
2022-12-27T01:44:50.735Z,15.00
2022-12-27T01:47:24.339Z,8.20
2022-12-27T01:49:59.438Z,18.43
2022-12-27T01:52:34.822Z,12.30
2022-12-27T01:55:12.128Z,11.60
2022-12-27T01:57:40.450Z,4.20
2022-12-27T02:00:08.972Z,16.57
2022-12-27T02:02:36.564Z,15.33
2022-12-27T02:05:04.355Z,5.17
2022-12-27T02:07:40.176Z,14.60
2022-12-27T02:10:07.634Z,7.63
2022-12-27T02:12:34.972Z,15.43
2022-12-27T02:15:03.879Z,10.53
2022-12-27T02:17:33.518Z,6.70
2022-12-27T02:20:06.438Z,5.47
2022-12-27T02:23:39.413Z,8.70
2022-12-27T02:26:48.874Z,10.47
2022-12-27T02:29:41.947Z,3.50
2022-12-27T02:32:13.844Z,6.43
2022-12-27T02:34:51.801Z,7.17
2022-12-27T02:37:21.493Z,8.70
2022-12-27T02:39:49.763Z,7.13
2022-12-27T02:42:32.877Z,6.20
2022-12-27T02:45:21.345Z,11.33
2022-12-27T02:48:06.973Z,4.23
2022-12-27T02:51:02.614Z,7.03
2022-12-27T02:53:35.221Z,5.40
2022-12-27T02:56:34.793Z,13.77
2022-12-27T02:59:14.126Z,6.00
2022-12-27T03:02:10.184Z,1.63
2022-12-27T03:04:52.697Z,5.17
2022-12-27T03:07:31.808Z,11.53
2022-12-27T03:10:30.119Z,8.03
2022-12-27T03:13:24.112Z,5.63
2022-12-27T03:16:08.964Z,3.27
2022-12-27T03:19:06.062Z,5.63
2022-12-27T03:21:54.965Z,9.57
2022-12-27T03:24:44.545Z,3.70
2022-12-27T03:27:17.355Z,19.97
2022-12-27T03:30:06.236Z,5.30
2022-12-27T03:32:56.947Z,5.93
2022-12-27T03:35:29.522Z,3.37
2022-12-27T03:38:04.817Z,3.60
2022-12-27T03:41:01.199Z,8.67
2022-12-27T03:43:29.497Z,4.13
2022-12-27T03:46:18.058Z,19.07
2022-12-27T03:48:59.158Z,8.60
2022-12-27T03:51:31.069Z,10.00
2022-12-27T03:54:05.011Z,3.47
2022-12-27T03:56:32.894Z,3.60
2022-12-27T03:59:02.065Z,14.53
2022-12-27T04:01:29.439Z,5.80
2022-12-27T04:03:57.007Z,6.33
2022-12-27T04:06:24.259Z,4.00
2022-12-27T04:09:10.337Z,3.60
2022-12-27T04:11:55.569Z,6.60
2022-12-27T04:14:40.690Z,2.47
2022-12-27T04:17:25.843Z,6.50
2022-12-27T04:20:11.332Z,3.37
2022-12-27T04:22:56.500Z,2.00
2022-12-27T04:25:42.415Z,6.10
2022-12-27T04:28:27.930Z,2.70
2022-12-27T04:31:12.997Z,5.17
2022-12-27T04:33:58.755Z,8.53
2022-12-27T04:36:25.988Z,3.20
2022-12-27T04:38:53.278Z,4.40
2022-12-27T04:41:39.461Z,4.90
2022-12-27T04:44:25.016Z,3.50
2022-12-27T04:47:10.535Z,2.00
2022-12-27T04:49:56.082Z,10.83
2022-12-27T04:52:43.005Z,8.47
2022-12-27T04:55:17.972Z,5.20
2022-12-27T04:57:46.179Z,13.40
2022-12-27T05:00:33.329Z,19.67
2022-12-27T05:03:03.716Z,6.73
2022-12-27T05:05:31.439Z,2.13
2022-12-27T05:08:18.100Z,2.33
2022-12-27T05:11:03.420Z,5.10
2022-12-27T05:13:49.415Z,5.10
2022-12-27T05:16:16.744Z,1.73
2022-12-27T05:18:44.043Z,7.50
2022-12-27T05:21:11.322Z,2.53
2022-12-27T05:24:01.766Z,7.20
2022-12-27T05:26:33.030Z,3.13
2022-12-27T05:29:01.473Z,7.43
2022-12-27T05:31:30.090Z,9.37
2022-12-27T05:33:57.916Z,3.67
2022-12-27T05:36:25.255Z,1.17
2022-12-27T05:38:52.568Z,2.60
2022-12-27T05:41:19.948Z,1.57
2022-12-27T05:43:47.323Z,11.83
2022-12-27T05:46:17.254Z,5.80
2022-12-27T05:48:44.656Z,4.67
2022-12-27T05:51:14.140Z,1.43
2022-12-27T05:53:41.543Z,3.43
2022-12-27T05:56:11.528Z,2.47
2022-12-27T05:58:39.859Z,2.30
2022-12-27T06:01:09.844Z,5.00
2022-12-27T06:03:38.511Z,4.47
2022-12-27T06:06:08.128Z,7.77
2022-12-27T06:08:36.184Z,4.43
2022-12-27T06:11:05.654Z,6.00
2022-12-27T06:13:33.278Z,4.10
2022-12-27T06:16:01.960Z,8.40
2022-12-27T06:18:31.761Z,4.73
2022-12-27T06:21:03.255Z,2.80
2022-12-27T06:23:30.613Z,4.07
2022-12-27T06:25:57.952Z,1.63
2022-12-27T06:28:25.233Z,1.60
2022-12-27T06:30:52.511Z,2.77
2022-12-27T06:33:19.757Z,2.03
2022-12-27T06:35:46.996Z,5.80
2022-12-27T06:38:14.884Z,6.33
2022-12-27T06:40:42.195Z,2.10
2022-12-27T06:43:09.491Z,1.93
2022-12-27T06:45:36.757Z,7.60
2022-12-27T06:48:04.584Z,1.73
2022-12-27T06:50:31.983Z,3.43
2022-12-27T06:52:59.266Z,6.60
2022-12-27T06:55:27.137Z,8.20
2022-12-27T06:57:54.372Z,5.83
2022-12-27T07:00:21.675Z,10.27
2022-12-27T07:02:48.962Z,4.50
2022-12-27T07:05:16.397Z,4.80
2022-12-27T07:07:43.680Z,2.80
2022-12-27T07:10:11.226Z,3.00
2022-12-27T07:12:39.176Z,2.30
2022-12-27T07:15:07.729Z,3.67
2022-12-27T07:17:35.638Z,5.07
2022-12-27T07:20:03.195Z,3.00
2022-12-27T07:22:30.652Z,4.97
2022-12-27T07:24:57.903Z,1.20
2022-12-27T07:27:25.274Z,9.40
2022-12-27T07:29:53.222Z,9.67
2022-12-27T07:32:20.460Z,5.23
2022-12-27T07:34:47.698Z,6.27
2022-12-27T07:37:16.325Z,6.33
2022-12-27T07:39:43.660Z,5.43
2022-12-27T07:42:10.956Z,7.20
2022-12-27T07:44:38.400Z,8.13
2022-12-27T07:47:06.429Z,6.30
2022-12-27T07:49:33.659Z,3.20
2022-12-27T07:52:00.900Z,3.43
2022-12-27T07:54:28.134Z,6.93
2022-12-27T07:56:55.365Z,7.93
2022-12-27T07:59:22.595Z,5.50
2022-12-27T08:02:05.189Z,4.00
2022-12-27T08:04:36.408Z,5.83
2022-12-27T08:07:06.765Z,7.17
2022-12-27T08:09:38.195Z,3.60
2022-12-27T08:12:06.226Z,5.07
2022-12-27T08:14:33.452Z,5.07
2022-12-27T08:17:06.210Z,7.60
2022-12-27T08:19:34.227Z,8.67
2022-12-27T08:22:01.530Z,12.70
2022-12-27T08:24:28.740Z,8.30
2022-12-27T08:26:56.015Z,15.53
2022-12-27T08:29:23.372Z,7.20
2022-12-27T08:31:50.672Z,7.00
2022-12-27T08:34:18.172Z,5.67
2022-12-27T08:36:55.078Z,5.30
2022-12-27T08:39:23.968Z,16.87
2022-12-27T08:41:53.112Z,3.30
2022-12-27T08:44:20.377Z,6.47
2022-12-27T08:46:47.692Z,4.03
2022-12-27T08:49:15.226Z,3.33
2022-12-27T08:51:42.483Z,6.50
2022-12-27T08:54:10.847Z,6.53
2022-12-27T08:56:38.320Z,9.90
2022-12-27T08:59:05.544Z,3.27
2022-12-27T09:01:32.958Z,6.73
2022-12-27T09:04:00.263Z,4.83
2022-12-27T09:06:27.503Z,4.10
2022-12-27T09:08:55.565Z,12.13
2022-12-27T09:11:25.848Z,6.20
2022-12-27T09:13:53.401Z,8.87
2022-12-27T09:16:23.406Z,5.83
2022-12-27T09:18:52.296Z,4.53
2022-12-27T09:21:21.101Z,3.80
2022-12-27T09:23:49.131Z,1.70
2022-12-27T09:26:18.159Z,4.77
2022-12-27T09:28:46.825Z,5.80
2022-12-27T09:31:14.919Z,2.83
2022-12-27T09:33:42.664Z,7.10
2022-12-27T09:36:12.401Z,3.00
2022-12-27T09:38:40.590Z,6.63
2022-12-27T09:41:37.659Z,2.27
2022-12-27T09:44:10.634Z,4.63
2022-12-27T09:46:43.187Z,4.67
2022-12-27T09:49:12.529Z,1.93
2022-12-27T09:51:46.896Z,5.23
2022-12-27T09:54:19.290Z,3.00
2022-12-27T09:57:18.204Z,3.77
2022-12-27T09:59:41.960Z,5.03
2022-12-27T10:02:20.522Z,5.50
2022-12-27T10:07:45.076Z,2.13
2022-12-27T10:10:23.716Z,4.70
2022-12-27T10:13:09.991Z,2.50
2022-12-27T10:15:47.633Z,10.90
2022-12-27T10:18:23.344Z,6.30
2022-12-27T10:21:04.736Z,26.53
2022-12-27T10:23:34.415Z,3.77
2022-12-27T10:26:06.250Z,6.63
2022-12-27T10:28:38.504Z,4.73
2022-12-27T10:31:11.778Z,14.67
2022-12-27T10:33:39.537Z,8.93
2022-12-27T10:36:12.428Z,1.93
2022-12-27T10:38:39.683Z,2.50
2022-12-27T10:41:24.571Z,7.43
2022-12-27T10:43:54.610Z,11.37
2022-12-27T10:46:32.183Z,5.07
2022-12-27T10:49:31.758Z,7.83
2022-12-27T10:51:50.305Z,2.67
2022-12-27T10:54:22.585Z,8.10
2022-12-27T10:56:50.088Z,3.10
2022-12-27T10:59:20.082Z,6.50
2022-12-27T11:01:51.796Z,6.70
2022-12-27T11:04:21.723Z,4.87
2022-12-27T11:06:51.097Z,6.20
2022-12-27T11:09:24.691Z,1.43
2022-12-27T11:11:51.992Z,3.50
2022-12-27T11:14:20.441Z,2.00
2022-12-27T11:16:49.729Z,4.90
2022-12-27T11:19:25.512Z,3.40
2022-12-27T11:21:54.688Z,3.80
2022-12-27T11:24:23.017Z,4.53
2022-12-27T11:26:54.089Z,3.47
2022-12-27T11:29:24.614Z,6.00
2022-12-27T11:31:54.104Z,2.90
2022-12-27T11:34:29.551Z,2.20
2022-12-27T11:37:05.116Z,2.87
2022-12-27T11:39:43.404Z,5.97
2022-12-27T11:42:20.139Z,3.53
2022-12-27T11:44:56.890Z,4.60
2022-12-27T11:47:32.516Z,17.00
2022-12-27T11:50:14.534Z,8.67
2022-12-27T11:53:25.352Z,10.97
2022-12-27T11:56:14.601Z,4.20
2022-12-27T11:59:01.853Z,10.83
2022-12-27T12:01:48.576Z,6.03
2022-12-27T12:04:47.624Z,2.10
2022-12-27T12:07:31.722Z,4.37
2022-12-27T12:10:14.567Z,6.80
2022-12-27T12:13:21.428Z,9.53
2022-12-27T12:16:27.198Z,10.23
2022-12-27T12:19:10.743Z,3.50
2022-12-27T12:21:46.415Z,4.60
2022-12-27T12:24:39.364Z,3.60
2022-12-27T12:27:39.175Z,2.50
2022-12-27T12:30:27.229Z,4.37
2022-12-27T12:33:13.935Z,6.10
2022-12-27T12:35:53.713Z,2.37
2022-12-27T12:38:23.344Z,8.90
2022-12-27T12:41:08.847Z,3.60
2022-12-27T12:43:57.679Z,1.47
2022-12-27T12:46:32.848Z,5.43
2022-12-27T12:49:15.959Z,1.80
2022-12-27T12:52:11.153Z,1.40
2022-12-27T12:55:01.051Z,5.50
2022-12-27T12:57:49.131Z,7.73
2022-12-27T13:00:37.975Z,2.13
2022-12-27T13:03:33.585Z,11.03
2022-12-27T13:06:10.593Z,2.90
2022-12-27T13:08:47.008Z,7.03
2022-12-27T13:11:37.683Z,2.50
2022-12-27T13:14:27.522Z,4.30
2022-12-27T13:17:01.199Z,5.70
2022-12-27T13:19:43.935Z,4.57
2022-12-27T13:22:19.594Z,6.03
2022-12-27T13:25:03.321Z,2.37
2022-12-27T13:27:39.016Z,8.03
2022-12-27T13:30:17.238Z,8.20
2022-12-27T13:33:11.929Z,4.63
2022-12-27T13:35:53.953Z,3.03
2022-12-27T13:38:34.543Z,2.00
2022-12-27T13:41:29.853Z,5.63
2022-12-27T13:44:13.866Z,3.40
2022-12-27T13:46:57.361Z,6.73
2022-12-27T13:49:45.690Z,2.30
2022-12-27T13:52:28.541Z,9.83
2022-12-27T13:55:15.678Z,18.97
2022-12-27T13:58:17.437Z,3.67
2022-12-27T14:00:52.104Z,6.03
2022-12-27T14:03:54.382Z,10.30
2022-12-27T14:06:52.388Z,8.70
2022-12-27T14:09:41.760Z,12.03
2022-12-27T14:12:34.924Z,8.13
2022-12-27T14:15:05.899Z,6.60
2022-12-27T14:17:42.787Z,13.07
2022-12-27T14:20:34.352Z,11.07
2022-12-27T14:23:30.558Z,8.13
2022-12-27T14:26:35.162Z,14.23
2022-12-27T14:29:58.523Z,8.93
2022-12-27T14:32:54.330Z,14.70
2022-12-27T14:36:12.293Z,7.60
2022-12-27T14:39:12.703Z,4.33
2022-12-27T14:42:18.717Z,3.60
2022-12-27T14:45:25.585Z,4.00
2022-12-27T14:48:07.184Z,11.10
2022-12-27T14:54:45.738Z,1.83
2022-12-27T14:57:28.733Z,3.40
2022-12-27T15:00:11.670Z,9.50
2022-12-27T15:03:04.417Z,8.50
2022-12-27T15:05:46.354Z,9.23
2022-12-27T15:08:35.899Z,19.17
2022-12-27T15:11:23.224Z,8.63
2022-12-27T15:14:06.333Z,12.43
2022-12-27T15:16:43.660Z,6.53
2022-12-27T15:19:28.628Z,13.00
2022-12-27T15:22:06.886Z,8.87
2022-12-27T15:24:48.322Z,10.63
2022-12-27T15:27:24.960Z,6.67
2022-12-27T15:30:17.901Z,10.87
2022-12-27T15:32:54.585Z,15.30
2022-12-27T15:35:47.705Z,8.17
2022-12-27T15:38:17.419Z,5.03
2022-12-27T15:41:22.076Z,48.43
2022-12-27T15:44:14.295Z,8.43
2022-12-27T15:47:15.362Z,9.60
2022-12-27T15:50:11.414Z,13.20
2022-12-27T15:53:01.707Z,8.83
2022-12-27T15:55:51.302Z,12.90
2022-12-27T15:58:20.746Z,14.47
2022-12-27T16:01:27.283Z,22.97
2022-12-27T16:03:57.668Z,31.27
2022-12-27T16:06:47.644Z,21.93
2022-12-27T16:09:36.896Z,13.03
2022-12-27T16:12:09.003Z,15.73
2022-12-27T16:14:38.582Z,9.57
2022-12-27T16:17:34.165Z,9.60
2022-12-27T16:20:13.989Z,13.13
2022-12-27T16:22:44.236Z,11.80
2022-12-27T16:25:32.994Z,13.80
2022-12-27T16:28:04.719Z,23.47
2022-12-27T16:30:46.988Z,8.57
2022-12-27T16:33:32.660Z,8.77
2022-12-27T16:36:16.189Z,16.00
2022-12-27T16:38:53.757Z,8.50
2022-12-27T16:41:42.930Z,11.40
2022-12-27T16:44:23.121Z,22.43
2022-12-27T16:47:03.622Z,23.70
2022-12-27T16:50:05.623Z,37.80
2022-12-27T16:52:48.574Z,40.90
2022-12-27T16:55:39.914Z,50.47
2022-12-27T16:58:23.561Z,49.53
2022-12-27T17:00:51.977Z,61.30
2022-12-27T17:03:44.512Z,25.17
2022-12-27T17:06:45.196Z,24.07
2022-12-27T17:09:42.315Z,16.77
2022-12-27T17:12:25.246Z,10.70
2022-12-27T17:15:01.449Z,8.47
2022-12-27T17:17:29.291Z,4.37
2022-12-27T17:20:00.706Z,7.93
2022-12-27T17:22:34.480Z,8.97
2022-12-27T17:25:03.519Z,3.93
2022-12-27T17:27:46.271Z,5.70
2022-12-27T17:30:20.306Z,8.00
2022-12-27T17:33:03.074Z,10.13
2022-12-27T17:35:38.407Z,6.30
2022-12-27T17:38:17.188Z,19.37
2022-12-27T17:40:50.803Z,5.97
2022-12-27T17:43:48.669Z,10.47
2022-12-27T17:46:30.676Z,35.80
2022-12-27T17:48:58.439Z,46.43
2022-12-27T17:51:28.316Z,36.80
2022-12-27T17:54:15.288Z,29.50
2022-12-27T17:57:02.552Z,15.73
2022-12-27T17:59:31.135Z,10.07
2022-12-27T18:02:03.730Z,6.80
2022-12-27T18:04:34.681Z,8.53
2022-12-27T18:07:03.775Z,7.30
2022-12-27T18:09:37.527Z,4.73
2022-12-27T18:12:11.178Z,10.97
2022-12-27T18:14:38.684Z,7.97
2022-12-27T18:17:06.682Z,9.90
2022-12-27T18:19:33.914Z,7.63
2022-12-27T18:22:03.035Z,4.70
2022-12-27T18:24:33.287Z,12.13
2022-12-27T18:27:02.980Z,10.73
2022-12-27T18:29:30.722Z,11.67
2022-12-27T18:32:02.636Z,14.70
2022-12-27T18:34:37.871Z,25.13
2022-12-27T18:37:09.339Z,14.20
2022-12-27T18:39:39.747Z,20.60
2022-12-27T18:42:15.920Z,18.57
2022-12-27T18:44:45.918Z,9.87
2022-12-27T18:47:19.533Z,6.67
2022-12-27T18:49:53.476Z,13.50
2022-12-27T18:52:25.519Z,11.90
2022-12-27T18:54:53.373Z,12.30
2022-12-27T18:57:36.229Z,10.33
2022-12-27T19:00:15.604Z,7.20
2022-12-27T19:02:43.112Z,5.90
2022-12-27T19:05:24.002Z,8.70
2022-12-27T19:07:55.483Z,8.40
2022-12-27T19:10:25.283Z,10.10
2022-12-27T19:12:53.477Z,16.43
2022-12-27T19:15:24.156Z,17.77
2022-12-27T19:17:56.465Z,23.00
2022-12-27T19:20:27.229Z,17.63
2022-12-27T19:22:56.574Z,9.13
2022-12-27T19:25:26.169Z,5.73
2022-12-27T19:27:58.332Z,12.30
2022-12-27T19:30:33.971Z,8.53
2022-12-27T19:33:05.822Z,9.30
2022-12-27T19:35:33.788Z,8.43
2022-12-27T19:38:02.149Z,13.17
2022-12-27T19:40:29.564Z,9.20
2022-12-27T19:42:56.854Z,11.60
2022-12-27T19:45:25.344Z,12.97
2022-12-27T19:47:54.217Z,13.13
2022-12-27T19:50:21.487Z,4.53
2022-12-27T19:52:50.039Z,2.60
2022-12-27T19:55:25.390Z,9.63
2022-12-27T19:57:54.687Z,8.43
2022-12-27T20:00:23.543Z,14.50
2022-12-27T20:02:53.086Z,19.80
2022-12-27T20:06:14.080Z,18.17
2022-12-27T20:08:22.933Z,12.73
2022-12-27T20:10:50.268Z,8.63
2022-12-27T20:13:17.635Z,7.60
2022-12-27T20:15:45.096Z,8.93
2022-12-27T20:18:15.348Z,5.40
2022-12-27T20:20:43.163Z,3.73
2022-12-27T20:23:13.111Z,15.83
2022-12-27T20:25:47.463Z,4.03
2022-12-27T20:28:16.274Z,7.43
2022-12-27T20:30:45.123Z,8.40
2022-12-27T20:33:12.992Z,4.53
2022-12-27T20:35:40.285Z,7.70
2022-12-27T20:38:09.771Z,5.07
2022-12-27T20:40:39.103Z,6.27
2022-12-27T20:43:09.550Z,3.83
2022-12-27T20:45:39.762Z,8.40
2022-12-27T20:48:11.412Z,7.60
2022-12-27T20:50:39.200Z,11.90
2022-12-27T20:53:09.627Z,3.37
2022-12-27T20:55:39.708Z,15.40
2022-12-27T20:58:07.079Z,5.77
2022-12-27T21:00:36.403Z,11.30
2022-12-27T21:03:04.046Z,4.83
2022-12-27T21:05:31.432Z,7.93
2022-12-27T21:07:58.677Z,3.20
2022-12-27T21:10:25.878Z,6.70
2022-12-27T21:12:53.812Z,5.80
2022-12-27T21:15:21.071Z,5.20
2022-12-27T21:17:48.395Z,4.93
2022-12-27T21:20:15.873Z,3.90
2022-12-27T21:22:43.148Z,7.87
2022-12-27T21:25:10.689Z,16.77
2022-12-27T21:27:37.983Z,5.70
2022-12-27T21:30:07.081Z,7.03
2022-12-27T21:32:34.332Z,5.40
2022-12-27T21:35:03.677Z,4.53
2022-12-27T21:37:30.894Z,6.77
2022-12-27T21:39:58.197Z,2.20
2022-12-27T21:42:25.459Z,4.27
2022-12-27T21:44:52.676Z,10.20
2022-12-27T21:47:25.787Z,9.80
2022-12-27T21:49:53.048Z,4.93
2022-12-27T21:52:20.290Z,8.20
2022-12-27T21:54:47.605Z,10.67
2022-12-27T21:57:14.883Z,7.57
2022-12-27T21:59:42.143Z,7.80
2022-12-27T22:02:09.567Z,7.97
2022-12-27T22:04:37.694Z,4.30
2022-12-27T22:07:05.103Z,6.93
2022-12-27T22:09:32.321Z,18.77
2022-12-27T22:11:59.561Z,7.40
2022-12-27T22:14:28.440Z,4.47
2022-12-27T22:16:59.309Z,7.83
2022-12-27T22:19:26.585Z,5.70
2022-12-27T22:21:54.458Z,10.93
2022-12-27T22:24:21.736Z,3.90
2022-12-27T22:26:49.350Z,7.90
2022-12-27T22:29:17.065Z,4.93
2022-12-27T22:31:44.292Z,4.87
2022-12-27T22:34:11.590Z,6.27
2022-12-27T22:36:38.863Z,10.83
2022-12-27T22:39:06.948Z,7.37
2022-12-27T22:41:36.174Z,5.43
2022-12-27T22:44:05.699Z,3.57
2022-12-27T22:46:58.766Z,10.40
2022-12-27T22:49:20.729Z,4.87
2022-12-27T22:51:47.980Z,4.60
2022-12-27T22:54:15.943Z,7.13
2022-12-27T22:56:43.474Z,3.83
2022-12-27T22:59:12.440Z,5.93
2022-12-27T23:01:41.190Z,10.07
2022-12-27T23:04:10.509Z,6.33
2022-12-27T23:06:39.171Z,9.60
2022-12-27T23:09:07.505Z,5.37
2022-12-27T23:11:37.393Z,2.10
2022-12-27T23:14:08.826Z,11.10
2022-12-27T23:16:37.253Z,4.17
2022-12-27T23:19:04.726Z,8.13
2022-12-27T23:21:32.030Z,4.57
2022-12-27T23:23:59.516Z,9.00
2022-12-27T23:26:27.372Z,8.13
2022-12-27T23:28:55.319Z,6.97
2022-12-27T23:31:23.749Z,11.83
2022-12-27T23:33:51.883Z,8.47
2022-12-27T23:36:19.743Z,3.87
2022-12-27T23:38:47.843Z,8.23
2022-12-27T23:41:16.529Z,8.50
2022-12-27T23:43:53.387Z,4.10
2022-12-27T23:46:25.237Z,8.60
2022-12-27T23:48:53.375Z,11.40
2022-12-27T23:51:21.416Z,2.43
2022-12-27T23:53:48.698Z,6.00
2022-12-27T23:56:17.444Z,3.90
2022-12-27T23:58:45.460Z,2.20
